Time;durP1;ratioP1;P1;durP2;ratioP2;P2;SDS_P1;SDS_P2;PMS_P1;PMS_P2;Temp;Humidity;BMP_temperature;BMP_pressure;BME280_temperature;BME280_humidity;BME280_pressure;Samples;Min_cycle;Max_cycle;Signal;HPM_P1;HPM_P2
2023/04/08 00:01:49;;;;;;;4.18;3.83;;;10.60;99.90;;;;;;5096497;28;20032;-80
2023/04/08 00:04:15;;;;;;;4.35;3.95;;;10.60;99.90;;;;;;5095991;28;20029;-79
2023/04/08 00:06:40;;;;;;;5.05;4.20;;;10.60;99.90;;;;;;5077912;28;20073;-80
2023/04/08 00:09:06;;;;;;;5.15;4.65;;;10.60;99.90;;;;;;5060954;28;20032;-79
2023/04/08 00:11:32;;;;;;;4.72;4.22;;;10.60;99.90;;;;;;5060943;28;20028;-81
2023/04/08 00:13:59;;;;;;;5.00;4.57;;;10.60;99.90;;;;;;5061688;28;20043;-79
2023/04/08 00:16:25;;;;;;;5.63;4.53;;;10.60;99.90;;;;;;5095983;28;20030;-79
2023/04/08 00:18:51;;;;;;;5.65;5.10;;;10.60;99.90;;;;;;5045066;28;20446;-79
2023/04/08 00:21:19;;;;;;;5.70;5.03;;;10.60;99.90;;;;;;5078213;28;20407;-79
2023/04/08 00:23:45;;;;;;;5.45;4.95;;;10.60;99.90;;;;;;5095274;28;20506;-79
2023/04/08 00:26:11;;;;;;;5.22;4.05;;;10.50;99.90;;;;;;5095951;28;20126;-79
2023/04/08 00:28:37;;;;;;;4.13;3.75;;;10.50;99.90;;;;;;5061102;28;20104;-79
2023/04/08 00:31:02;;;;;;;3.88;3.47;;;10.50;99.90;;;;;;5096018;28;20036;-80
2023/04/08 00:33:28;;;;;;;4.30;3.90;;;10.60;99.90;;;;;;5060705;28;20055;-81
2023/04/08 00:35:54;;;;;;;4.55;4.15;;;10.60;99.90;;;;;;5077160;28;20081;-79
2023/04/08 00:38:20;;;;;;;4.88;4.38;;;10.50;99.90;;;;;;5095395;28;20035;-80
2023/04/08 00:40:46;;;;;;;5.38;4.68;;;10.40;99.90;;;;;;5076516;28;20071;-80
2023/04/08 00:43:11;;;;;;;4.95;4.45;;;10.40;99.90;;;;;;5095029;28;20369;-80
2023/04/08 00:45:37;;;;;;;5.50;4.80;;;10.40;99.90;;;;;;5076808;28;20048;-81
2023/04/08 00:48:04;;;;;;;4.50;4.10;;;10.40;99.90;;;;;;5095481;28;20066;-80
2023/04/08 00:50:30;;;;;;;4.43;4.03;;;10.40;99.90;;;;;;5076840;28;20033;-79
2023/04/08 00:52:55;;;;;;;4.82;4.30;;;10.40;99.90;;;;;;5095019;28;20030;-81
2023/04/08 00:55:21;;;;;;;7.97;4.63;;;10.30;99.90;;;;;;5076970;28;20035;-80
2023/04/08 00:57:47;;;;;;;4.93;4.45;;;10.40;99.90;;;;;;5094913;28;20067;-81
2023/04/08 01:00:14;;;;;;;5.18;4.40;;;10.30;99.90;;;;;;5043615;28;20063;-80
2023/04/08 01:02:43;;;;;;;4.85;4.35;;;10.40;99.90;;;;;;5060470;28;20040;-80
2023/04/08 01:05:20;;;;;;;4.60;4.15;;;10.30;99.90;;;;;;5076643;28;20054;-80
2023/04/08 01:07:49;;;;;;;4.63;4.22;;;10.40;99.90;;;;;;5077199;28;20028;-79
2023/04/08 01:10:20;;;;;;;5.70;4.82;;;10.40;99.90;;;;;;5059960;28;20056;-80
2023/04/08 01:13:08;;;;;;;5.70;4.53;;;10.30;99.90;;;;;;5076584;28;20197;-79
2023/04/08 01:15:38;;;;;;;4.68;4.28;;;10.30;99.90;;;;;;5094980;28;20069;-78
2023/04/08 01:18:07;;;;;;;7.20;4.80;;;10.30;99.90;;;;;;5077172;28;20032;-79
2023/04/08 01:20:33;;;;;;;7.03;4.97;;;10.30;99.90;;;;;;5094673;28;20035;-78
2023/04/08 01:23:48;;;;;;;14.52;4.97;;;10.30;99.90;;;;;;5076548;28;20100;-79
2023/04/08 01:26:23;;;;;;;7.40;5.50;;;10.30;99.90;;;;;;5071898;28;20505;-78
2023/04/08 01:28:52;;;;;;;6.93;5.13;;;10.20;99.90;;;;;;5094472;28;20020;-79
2023/04/08 01:31:18;;;;;;;5.60;5.00;;;10.20;99.90;;;;;;5076153;28;20030;-78
2023/04/08 01:33:45;;;;;;;5.28;4.78;;;10.20;99.90;;;;;;5094382;28;20032;-77
2023/04/08 01:36:11;;;;;;;5.40;4.90;;;10.20;99.90;;;;;;5094317;28;20028;-79
2023/04/08 01:38:38;;;;;;;5.57;5.00;;;10.10;99.90;;;;;;5076313;28;20035;-80
2023/04/08 01:41:05;;;;;;;6.30;4.10;;;9.90;99.90;;;;;;5059379;28;20028;-79
2023/04/08 01:43:33;;;;;;;4.10;3.70;;;9.50;99.90;;;;;;5059565;28;20036;-79
2023/04/08 01:46:00;;;;;;;4.15;3.75;;;9.20;99.90;;;;;;5075542;28;20044;-79
2023/04/08 01:48:27;;;;;;;3.40;3.10;;;8.90;99.90;;;;;;5094125;28;20081;-79
2023/04/08 01:50:55;;;;;;;3.40;3.10;;;8.70;99.90;;;;;;5076068;28;20028;-79
2023/04/08 01:53:20;;;;;;;3.53;3.22;;;8.60;99.90;;;;;;5094025;28;20024;-78
2023/04/08 01:55:51;;;;;;;2.90;2.70;;;8.60;99.90;;;;;;5094232;28;20032;-78
2023/04/08 01:58:20;;;;;;;3.63;3.30;;;8.60;99.90;;;;;;5076369;28;20036;-79
2023/04/08 02:00:46;;;;;;;3.35;3.15;;;8.60;99.90;;;;;;5076025;28;20036;-79
2023/04/08 02:03:13;;;;;;;3.08;2.83;;;8.40;99.90;;;;;;5076128;28;20480;-79
2023/04/08 02:05:39;;;;;;;3.53;3.22;;;8.20;99.90;;;;;;5093600;28;20392;-79
2023/04/08 02:08:05;;;;;;;4.20;3.80;;;8.00;99.90;;;;;;5076475;28;20138;-79
2023/04/08 02:10:31;;;;;;;4.50;4.10;;;7.80;99.90;;;;;;5076644;28;20174;-79
2023/04/08 02:12:57;;;;;;;4.55;4.15;;;7.40;99.90;;;;;;5059105;28;20507;-78
2023/04/08 02:15:23;;;;;;;5.30;4.80;;;7.10;99.90;;;;;;5075655;28;20055;-79
2023/04/08 02:17:59;;;;;;;7.70;5.95;;;6.90;99.90;;;;;;5076054;28;20036;-78
2023/04/08 02:20:25;;;;;;;7.68;6.90;;;6.70;99.90;;;;;;5075799;28;20383;-78
2023/04/08 02:23:22;;;;;;;7.43;6.20;;;6.50;99.90;;;;;;5093653;28;20028;-79
2023/04/08 02:25:49;;;;;;;10.05;6.53;;;6.30;99.90;;;;;;5092722;28;20036;-78
2023/04/08 02:28:17;;;;;;;7.32;6.47;;;6.00;99.90;;;;;;5093954;28;20028;-78
2023/04/08 02:30:47;;;;;;;7.68;6.65;;;5.90;99.90;;;;;;5075517;28;20063;-79
2023/04/08 02:33:14;;;;;;;8.15;6.70;;;5.60;99.90;;;;;;5093993;28;20027;-78
2023/04/08 02:35:40;;;;;;;7.93;7.13;;;5.60;99.90;;;;;;5075146;28;20186;-79
2023/04/08 02:38:07;;;;;;;7.25;6.53;;;5.60;99.90;;;;;;5075214;28;20064;-79
2023/04/08 02:40:34;;;;;;;7.53;6.72;;;5.70;99.90;;;;;;5075303;28;20071;-78
2023/04/08 02:43:00;;;;;;;7.75;6.68;;;5.80;99.90;;;;;;5075298;28;20541;-78
2023/04/08 02:45:39;;;;;;;7.57;6.65;;;6.00;99.90;;;;;;5075155;28;20052;-78
2023/04/08 02:48:05;;;;;;;7.63;6.00;;;6.00;99.90;;;;;;5093515;28;20028;-79
2023/04/08 02:50:31;;;;;;;5.95;5.35;;;6.10;99.90;;;;;;5094192;28;20039;-79
2023/04/08 02:52:57;;;;;;;5.88;5.28;;;6.20;99.90;;;;;;5075243;28;20028;-79
2023/04/08 02:55:22;;;;;;;5.90;5.30;;;6.40;99.90;;;;;;5058875;28;20024;-79
2023/04/08 02:57:48;;;;;;;5.57;5.07;;;6.40;99.90;;;;;;5093908;28;20345;-79
2023/04/08 03:00:14;;;;;;;6.00;5.45;;;6.40;99.90;;;;;;5058914;28;20040;-81
2023/04/08 03:02:40;;;;;;;5.47;4.97;;;6.40;99.90;;;;;;5075212;28;20032;-80
2023/04/08 03:05:06;;;;;;;6.63;5.60;;;6.40;99.90;;;;;;5079178;28;20039;-80
2023/04/08 03:07:32;;;;;;;8.63;5.32;;;6.30;99.90;;;;;;5079770;28;20111;-80
2023/04/08 03:09:58;;;;;;;6.82;6.15;;;6.50;99.90;;;;;;5096954;28;20487;-80
2023/04/08 03:12:26;;;;;;;6.50;5.78;;;6.70;99.90;;;;;;5046517;28;20032;-80
2023/04/08 03:14:53;;;;;;;5.65;5.15;;;6.90;99.90;;;;;;5078811;28;20024;-80
2023/04/08 03:17:18;;;;;;;6.18;5.20;;;7.10;99.90;;;;;;5078787;28;20028;-79
2023/04/08 03:19:44;;;;;;;5.78;5.13;;;7.20;99.90;;;;;;5078637;28;20111;-78
2023/04/08 03:22:10;;;;;;;6.18;4.97;;;7.40;99.90;;;;;;5079403;28;20039;-80
2023/04/08 03:24:36;;;;;;;6.00;5.22;;;7.50;99.90;;;;;;5097308;28;20463;-79
2023/04/08 03:27:02;;;;;;;6.05;5.45;;;7.70;99.90;;;;;;5078697;28;20028;-79
2023/04/08 03:29:28;;;;;;;6.28;5.57;;;7.80;99.90;;;;;;5061929;28;20028;-79
2023/04/08 03:31:54;;;;;;;6.32;5.60;;;7.80;99.90;;;;;;5096984;28;20039;-79
2023/04/08 03:34:19;;;;;;;5.55;5.03;;;7.80;99.90;;;;;;5096894;28;20024;-80
2023/04/08 03:36:45;;;;;;;8.15;5.85;;;7.70;99.90;;;;;;5062013;28;20068;-79
2023/04/08 03:39:11;;;;;;;6.60;5.78;;;7.50;99.90;;;;;;5096836;28;20107;-78
2023/04/08 03:41:36;;;;;;;7.53;6.53;;;7.30;99.90;;;;;;5096435;28;20060;-78
2023/04/08 03:44:02;;;;;;;5.95;5.35;;;7.10;99.90;;;;;;5077972;28;20040;-79
2023/04/08 03:46:27;;;;;;;6.97;6.28;;;7.10;99.90;;;;;;5078301;28;20052;-79
2023/04/08 03:48:53;;;;;;;7.15;6.45;;;7.20;99.90;;;;;;5045891;28;20372;-79
2023/04/08 03:51:19;;;;;;;6.85;6.15;;;7.40;99.90;;;;;;5061999;28;20036;-78
2023/04/08 03:53:44;;;;;;;8.38;6.38;;;7.40;99.90;;;;;;5061408;28;20107;-79
2023/04/08 03:56:10;;;;;;;7.20;6.18;;;7.60;99.90;;;;;;5096484;28;20521;-79
2023/04/08 03:58:36;;;;;;;7.88;7.07;;;7.70;99.90;;;;;;5078036;28;20043;-80
2023/04/08 04:01:01;;;;;;;8.13;6.55;;;7.80;99.90;;;;;;5061773;28;20032;-79
2023/04/08 04:03:27;;;;;;;9.20;6.90;;;7.80;99.90;;;;;;5044576;28;20039;-80
2023/04/08 04:05:53;;;;;;;10.63;8.88;;;7.90;99.90;;;;;;5078054;28;20364;-80
2023/04/08 04:08:19;;;;;;;9.32;7.20;;;7.90;99.90;;;;;;5077841;28;20448;-79
2023/04/08 04:10:44;;;;;;;8.18;6.90;;;7.90;99.90;;;;;;5078333;28;20032;-80
2023/04/08 04:13:10;;;;;;;7.93;7.13;;;8.10;99.90;;;;;;5077844;28;20028;-78
2023/04/08 04:15:40;;;;;;;8.55;7.53;;;8.20;99.90;;;;;;5044379;28;20123;-78
2023/04/08 04:18:06;;;;;;;9.98;7.88;;;8.20;99.90;;;;;;5077580;28;20055;-78
2023/04/08 04:20:32;;;;;;;9.13;7.90;;;8.20;99.90;;;;;;5077582;28;20123;-80
2023/04/08 04:22:57;;;;;;;12.02;9.75;;;8.30;99.90;;;;;;5060915;28;20036;-78
2023/04/08 04:25:23;;;;;;;16.25;9.88;;;8.30;99.90;;;;;;5077462;28;20028;-78
2023/04/08 04:27:49;;;;;;;12.60;9.95;;;8.20;99.90;;;;;;5077673;28;20039;-78
2023/04/08 04:30:15;;;;;;;12.10;9.35;;;8.10;99.90;;;;;;5095703;28;20028;-78
2023/04/08 04:32:42;;;;;;;12.57;10.50;;;8.10;99.90;;;;;;5095217;28;20032;-79
2023/04/08 04:35:11;;;;;;;12.65;10.35;;;8.10;99.90;;;;;;5077872;28;20402;-79
2023/04/08 04:37:37;;;;;;;12.77;10.55;;;8.00;99.90;;;;;;5095407;28;20074;-78
2023/04/08 04:40:04;;;;;;;12.88;10.98;;;7.80;99.90;;;;;;5095492;28;20071;-78
2023/04/08 04:42:30;;;;;;;18.70;11.73;;;7.60;99.90;;;;;;5060358;28;20373;-78
2023/04/08 04:44:56;;;;;;;13.13;11.23;;;7.50;99.90;;;;;;5095141;28;20052;-78
2023/04/08 04:47:22;;;;;;;13.95;10.57;;;7.50;99.90;;;;;;5061372;28;20035;-78
2023/04/08 04:49:47;;;;;;;15.13;12.13;;;7.40;99.90;;;;;;5076929;28;20028;-78
2023/04/08 04:52:13;;;;;;;14.07;11.40;;;7.40;99.90;;;;;;5060267;28;20104;-77
2023/04/08 04:54:39;;;;;;;15.13;12.45;;;7.10;99.90;;;;;;5095128;28;20020;-78
2023/04/08 04:57:05;;;;;;;16.30;12.35;;;6.90;99.90;;;;;;5095180;28;20078;-78
2023/04/08 04:59:31;;;;;;;14.80;12.27;;;6.60;99.90;;;;;;5076855;28;20123;-78
2023/04/08 05:01:56;;;;;;;15.63;12.75;;;6.50;99.90;;;;;;5076711;28;20035;-77
2023/04/08 05:04:23;;;;;;;15.90;12.57;;;6.40;99.90;;;;;;5094543;28;20073;-78
2023/04/08 05:06:49;;;;;;;15.65;12.00;;;6.50;99.90;;;;;;5060174;28;20028;-79
2023/04/08 05:09:14;;;;;;;12.68;10.65;;;6.60;99.90;;;;;;5076588;28;20101;-78
2023/04/08 05:11:40;;;;;;;13.73;10.55;;;6.80;99.90;;;;;;5076720;28;20032;-78
2023/04/08 05:14:06;;;;;;;13.63;11.00;;;7.00;99.90;;;;;;5076856;28;20441;-77
2023/04/08 05:16:32;;;;;;;16.52;11.15;;;7.30;99.90;;;;;;5094621;28;20479;-78
2023/04/08 05:18:58;;;;;;;13.30;10.80;;;7.40;99.90;;;;;;5076585;28;20023;-77
2023/04/08 05:21:24;;;;;;;11.73;10.32;;;7.50;99.90;;;;;;5075940;28;20472;-77
2023/04/08 05:23:51;;;;;;;12.75;10.07;;;7.60;99.90;;;;;;5043051;28;20065;-78
2023/04/08 05:26:21;;;;;;;12.82;10.07;;;7.80;99.90;;;;;;5042965;28;20035;-78
2023/04/08 05:28:47;;;;;;;12.15;9.57;;;7.90;99.90;;;;;;5076079;28;20493;-77
2023/04/08 05:31:18;;;;;;;12.27;9.85;;;8.00;99.90;;;;;;5094233;28;20032;-78
2023/04/08 05:33:44;;;;;;;12.68;9.68;;;8.10;99.90;;;;;;5076283;28;20071;-78
2023/04/08 05:36:10;;;;;;;14.00;9.52;;;8.10;99.90;;;;;;5076105;28;20122;-78
2023/04/08 05:38:36;;;;;;;14.63;9.90;;;8.20;99.90;;;;;;5059956;28;20039;-79
2023/04/08 05:41:02;;;;;;;12.27;9.77;;;8.30;99.90;;;;;;5094355;28;20031;-77
2023/04/08 05:43:27;;;;;;;12.45;9.73;;;8.30;99.90;;;;;;5094566;28;20073;-77
2023/04/08 05:45:53;;;;;;;13.35;9.57;;;8.40;99.90;;;;;;5094076;28;20131;-78
2023/04/08 05:48:22;;;;;;;11.77;9.48;;;8.40;99.90;;;;;;5059777;28;20058;-78
2023/04/08 05:50:47;;;;;;;11.27;8.95;;;8.50;99.90;;;;;;5060249;28;20036;-78
2023/04/08 05:53:13;;;;;;;12.65;9.70;;;8.50;99.90;;;;;;5075887;28;20201;-79
2023/04/08 05:55:40;;;;;;;10.32;8.82;;;8.50;99.90;;;;;;5075927;28;20039;-78
2023/04/08 05:58:06;;;;;;;10.20;8.40;;;8.60;99.90;;;;;;5059111;28;20038;-78
2023/04/08 06:00:32;;;;;;;11.18;8.82;;;8.60;99.90;;;;;;5075656;28;20111;-78
2023/04/08 06:02:57;;;;;;;9.15;7.80;;;8.70;99.90;;;;;;5075878;28;20137;-75
2023/04/08 06:05:25;;;;;;;6.07;5.32;;;8.80;99.90;;;;;;5094198;28;20079;-78
2023/04/08 06:07:50;;;;;;;7.07;5.18;;;9.00;99.90;;;;;;5076131;28;20028;-74
2023/04/08 06:10:16;;;;;;;7.95;5.22;;;9.30;99.90;;;;;;5058978;28;20032;-77
2023/04/08 06:12:42;;;;;;;7.15;4.07;;;9.70;99.90;;;;;;5094013;28;20032;-78
2023/04/08 06:15:08;;;;;;;10.32;6.50;;;9.90;99.90;;;;;;5058970;28;20475;-77
2023/04/08 06:17:37;;;;;;;8.95;5.40;;;10.20;99.90;;;;;;5076075;28;20346;-78
2023/04/08 06:20:04;;;;;;;5.78;4.95;;;10.40;99.90;;;;;;5093561;28;20028;-78
2023/04/08 06:22:30;;;;;;;9.23;4.68;;;10.50;99.90;;;;;;5093624;28;20028;-78
2023/04/08 06:24:56;;;;;;;6.65;5.47;;;10.70;99.90;;;;;;5075828;28;20050;-78
2023/04/08 06:27:21;;;;;;;8.00;4.95;;;10.80;99.90;;;;;;5075459;28;20064;-78
2023/04/08 06:29:47;;;;;;;8.73;7.00;;;10.80;99.90;;;;;;5093301;28;20543;-80
2023/04/08 06:32:13;;;;;;;9.82;6.55;;;10.90;99.90;;;;;;5093757;28;20064;-78
2023/04/08 06:34:39;;;;;;;7.32;6.22;;;10.90;99.90;;;;;;5058686;28;20533;-78
2023/04/08 06:37:06;;;;;;;9.95;7.28;;;10.90;99.90;;;;;;5093251;28;20024;-78
2023/04/08 06:39:32;;;;;;;8.05;6.32;;;10.60;99.90;;;;;;5078504;28;20024;-78
2023/04/08 06:41:58;;;;;;;7.80;3.63;;;10.50;99.90;;;;;;5079931;28;20415;-77
2023/04/08 06:44:24;;;;;;;8.10;5.40;;;10.70;99.90;;;;;;5079352;28;20032;-78
2023/04/08 06:46:50;;;;;;;6.22;5.63;;;11.00;99.90;;;;;;5062736;28;20052;-77
2023/04/08 06:49:15;;;;;;;9.48;6.68;;;11.20;99.90;;;;;;5080019;28;20118;-77
2023/04/08 06:51:41;;;;;;;7.95;6.45;;;11.30;99.90;;;;;;5079478;28;20028;-80
2023/04/08 06:54:08;;;;;;;5.88;5.25;;;11.40;99.90;;;;;;5079048;28;20028;-79
2023/04/08 06:56:35;;;;;;;10.38;5.90;;;11.50;99.90;;;;;;5080116;28;20024;-78
2023/04/08 06:59:02;;;;;;;7.53;6.10;;;11.70;99.90;;;;;;5079076;28;20038;-78
2023/04/08 07:01:27;;;;;;;9.77;5.63;;;11.70;99.90;;;;;;5062452;28;20055;-77
2023/04/08 07:03:53;;;;;;;7.85;5.55;;;11.60;99.90;;;;;;5062473;28;20449;-78
2023/04/08 07:06:19;;;;;;;7.10;5.95;;;11.60;99.90;;;;;;5062305;28;20081;-78
2023/04/08 07:08:45;;;;;;;5.35;4.00;;;11.70;99.90;;;;;;5097190;28;20115;-78
2023/04/08 07:11:11;;;;;;;8.60;6.03;;;11.80;99.90;;;;;;5062295;28;20119;-78
2023/04/08 07:13:37;;;;;;;8.75;7.15;;;11.80;99.90;;;;;;5097378;28;20065;-77
2023/04/08 07:16:02;;;;;;;11.70;5.30;;;11.80;97.60;;;;;;5061874;28;20082;-77
2023/04/08 07:18:28;;;;;;;9.35;5.60;;;11.50;98.10;;;;;;5097274;28;20074;-78
2023/04/08 07:20:54;;;;;;;6.65;5.50;;;11.40;97.00;;;;;;5079115;28;20033;-78
2023/04/08 07:23:20;;;;;;;9.85;5.80;;;11.20;97.40;;;;;;5062040;28;20522;-80
2023/04/08 07:25:46;;;;;;;8.63;5.97;;;11.20;98.50;;;;;;5061951;28;20060;-75
2023/04/08 07:28:12;;;;;;;7.63;6.05;;;11.30;98.30;;;;;;5079041;28;20034;-77
2023/04/08 07:30:38;;;;;;;6.80;5.32;;;11.40;98.00;;;;;;5078666;28;20149;-77
2023/04/08 07:33:03;;;;;;;7.32;5.03;;;11.30;97.80;;;;;;5078926;28;20073;-77
2023/04/08 07:35:30;;;;;;;8.13;5.47;;;11.30;97.90;;;;;;5078445;28;20509;-78
2023/04/08 07:37:56;;;;;;;8.52;5.57;;;11.30;97.50;;;;;;5096259;28;20036;-78
2023/04/08 07:40:22;;;;;;;8.10;6.05;;;11.30;97.90;;;;;;5062256;28;20039;-77
2023/04/08 07:42:48;;;;;;;8.20;6.32;;;11.30;97.70;;;;;;5078313;28;20063;-77
2023/04/08 07:45:14;;;;;;;7.35;5.53;;;11.10;97.30;;;;;;5096551;28;20486;-77
2023/04/08 07:47:40;;;;;;;9.07;6.03;;;11.10;97.70;;;;;;5060179;28;20028;-76
2023/04/08 07:50:06;;;;;;;9.38;6.00;;;11.10;96.90;;;;;;5094910;28;20121;-75
2023/04/08 07:52:33;;;;;;;8.10;6.10;;;11.00;97.30;;;;;;5095231;28;20070;-77
2023/04/08 07:54:58;;;;;;;9.70;6.63;;;10.90;97.80;;;;;;5060100;28;20105;-79
2023/04/08 07:57:25;;;;;;;7.88;5.95;;;10.90;97.70;;;;;;5094922;28;20059;-77
2023/04/08 07:59:51;;;;;;;8.55;6.03;;;11.00;98.00;;;;;;5076929;28;20028;-78
2023/04/08 08:02:16;;;;;;;6.75;5.68;;;11.10;97.90;;;;;;5077225;28;20114;-77
2023/04/08 08:04:42;;;;;;;7.93;5.88;;;11.30;97.70;;;;;;5076893;28;20039;-77
2023/04/08 08:07:08;;;;;;;8.68;6.63;;;11.30;97.90;;;;;;5060503;28;20031;-75
2023/04/08 08:09:33;;;;;;;8.55;6.32;;;11.20;98.20;;;;;;5095125;28;20081;-78
2023/04/08 08:11:59;;;;;;;8.35;6.55;;;11.10;98.60;;;;;;5043630;28;20032;-78
2023/04/08 08:14:25;;;;;;;9.98;6.68;;;11.20;98.70;;;;;;5095302;28;20035;-79
2023/04/08 08:16:52;;;;;;;10.60;7.55;;;11.30;98.70;;;;;;5095293;28;20028;-79
2023/04/08 08:19:22;;;;;;;11.95;7.13;;;11.50;98.80;;;;;;5076869;28;20028;-77
2023/04/08 08:21:48;;;;;;;9.82;7.05;;;11.50;99.00;;;;;;5076429;28;20384;-80
2023/04/08 08:24:15;;;;;;;7.15;6.38;;;11.60;98.30;;;;;;5094832;28;20024;-80
2023/04/08 08:26:41;;;;;;;6.80;5.80;;;11.70;98.30;;;;;;5076428;28;20028;-77
2023/04/08 08:29:07;;;;;;;8.55;6.45;;;11.90;98.40;;;;;;5094573;28;20047;-77
2023/04/08 08:31:33;;;;;;;12.07;6.20;;;12.10;97.40;;;;;;5094557;28;20043;-79
2023/04/08 08:33:59;;;;;;;10.75;5.97;;;12.20;96.70;;;;;;5094194;28;20055;-77
2023/04/08 08:36:26;;;;;;;9.13;5.60;;;12.30;96.40;;;;;;5094344;28;20444;-79
2023/04/08 08:38:53;;;;;;;7.75;5.93;;;12.40;96.20;;;;;;5060288;28;20024;-79
2023/04/08 08:41:19;;;;;;;10.60;6.28;;;12.60;96.00;;;;;;5076422;28;20028;-79
2023/04/08 08:43:45;;;;;;;8.65;5.63;;;12.80;95.50;;;;;;5076017;28;20496;-78
2023/04/08 08:46:14;;;;;;;8.90;6.35;;;12.70;95.10;;;;;;5036636;28;1137905;-78
2023/04/08 08:48:40;;;;;;;7.45;5.45;;;12.70;94.60;;;;;;5077774;28;20115;-77
2023/04/08 08:51:10;;;;;;;7.88;5.47;;;12.80;95.00;;;;;;5077191;28;20443;-78
2023/04/08 08:53:36;;;;;;;11.07;6.57;;;12.90;95.30;;;;;;5077705;28;20122;-78
2023/04/08 08:56:02;;;;;;;9.88;6.15;;;12.90;95.40;;;;;;5060940;28;20106;-78
2023/04/08 08:58:28;;;;;;;6.70;5.43;;;12.80;94.80;;;;;;5077288;28;20115;-79
2023/04/08 09:00:54;;;;;;;7.07;4.95;;;12.80;95.20;;;;;;5059686;28;20532;-78
2023/04/08 09:03:20;;;;;;;9.75;6.05;;;13.00;95.40;;;;;;5076790;28;20064;-79
2023/04/08 09:05:57;;;;;;;11.60;7.15;;;13.30;95.30;;;;;;5095162;28;20047;-79
2023/04/08 09:08:34;;;;;;;9.68;7.55;;;13.30;93.20;;;;;;5094936;28;20028;-78
2023/04/08 09:11:14;;;;;;;9.48;7.95;;;13.20;92.70;;;;;;5076733;28;20024;-80
2023/04/08 09:13:41;;;;;;;7.95;6.88;;;13.10;92.50;;;;;;5076646;28;20472;-79
2023/04/08 09:16:09;;;;;;;7.95;6.57;;;13.30;92.70;;;;;;5060061;28;20365;-77
2023/04/08 09:18:36;;;;;;;9.93;7.68;;;13.30;92.20;;;;;;5094569;28;20485;-77
2023/04/08 09:21:03;;;;;;;8.10;7.18;;;13.30;90.10;;;;;;5076975;28;20039;-78
2023/04/08 09:23:41;;;;;;;8.73;6.63;;;13.00;90.40;;;;;;5094468;28;20036;-77
2023/04/08 09:26:11;;;;;;;12.10;7.38;;;12.90;92.00;;;;;;5094762;28;20504;-77
2023/04/08 09:28:39;;;;;;;9.18;6.80;;;13.00;92.60;;;;;;5094749;28;20368;-76
2023/04/08 09:31:20;;;;;;;10.27;7.18;;;13.30;91.60;;;;;;5094380;28;20588;-77
2023/04/08 09:33:47;;;;;;;9.40;7.05;;;13.50;91.70;;;;;;5076721;28;20110;-77
2023/04/08 09:36:14;;;;;;;7.28;6.25;;;13.80;91.00;;;;;;5076142;28;20372;-78
2023/04/08 09:38:40;;;;;;;9.10;7.00;;;13.90;90.60;;;;;;5093979;28;20490;-80
2023/04/08 09:41:10;;;;;;;8.93;6.93;;;14.00;90.00;;;;;;5075874;28;20044;-78
2023/04/08 09:43:41;;;;;;;11.95;7.60;;;14.10;90.50;;;;;;5094250;28;20039;-81
2023/04/08 09:46:10;;;;;;;9.98;7.30;;;14.20;88.00;;;;;;5072586;28;20055;-82
2023/04/08 09:48:41;;;;;;;9.15;7.45;;;14.20;88.90;;;;;;5073321;28;20035;-79
2023/04/08 09:51:11;;;;;;;9.77;7.28;;;14.40;88.30;;;;;;5073619;28;20024;-77
2023/04/08 09:53:40;;;;;;;8.70;6.65;;;14.50;86.80;;;;;;5073615;28;20116;-76
2023/04/08 09:56:11;;;;;;;11.27;6.70;;;14.40;86.30;;;;;;5073821;28;20032;-76
2023/04/08 09:59:17;;;;;;;8.55;6.47;;;14.50;88.40;;;;;;5074038;28;20024;-75
2023/04/08 10:01:51;;;;;;;8.07;5.88;;;14.60;87.00;;;;;;5061605;28;20055;-76
2023/04/08 10:04:19;;;;;;;7.72;5.90;;;14.90;86.60;;;;;;5074183;28;20052;-75
2023/04/08 10:06:53;;;;;;;9.77;7.35;;;15.00;85.30;;;;;;5073807;28;20098;-77
2023/04/08 10:09:22;;;;;;;8.55;7.00;;;15.20;84.40;;;;;;5072398;28;20111;-76
2023/04/08 10:11:48;;;;;;;8.63;6.72;;;15.00;80.90;;;;;;5072173;28;20063;-78
2023/04/08 10:14:14;;;;;;;12.38;7.00;;;14.70;81.20;;;;;;5072750;28;20064;-77
2023/04/08 10:16:40;;;;;;;7.35;6.13;;;14.60;81.70;;;;;;5073520;28;20457;-77
2023/04/08 10:19:39;;;;;;;8.27;7.10;;;14.60;81.30;;;;;;5072279;28;20036;-77
2023/04/08 10:22:27;;;;;;;12.02;7.13;;;14.50;83.10;;;;;;5072133;28;20090;-76
2023/04/08 10:25:14;;;;;;;8.98;6.53;;;14.60;82.60;;;;;;5073249;28;20094;-75
2023/04/08 10:27:40;;;;;;;8.95;6.72;;;14.80;82.60;;;;;;5073067;28;20040;-77
2023/04/08 10:30:26;;;;;;;8.70;6.43;;;15.10;84.60;;;;;;5071671;28;20036;-77
2023/04/08 10:32:55;;;;;;;7.32;5.97;;;15.30;81.10;;;;;;5073619;28;20021;-78
2023/04/08 10:35:45;;;;;;;8.65;6.38;;;15.50;81.70;;;;;;5073182;28;20024;-76
2023/04/08 10:38:12;;;;;;;10.77;5.70;;;15.80;81.30;;;;;;5073766;28;20099;-77
2023/04/08 10:40:40;;;;;;;9.00;5.90;;;15.70;77.60;;;;;;5071811;28;20028;-77
2023/04/08 10:43:06;;;;;;;7.50;5.50;;;15.40;76.20;;;;;;5056027;28;20063;-75
2023/04/08 10:45:33;;;;;;;8.70;6.78;;;15.10;74.30;;;;;;5054769;28;20052;-76
2023/04/08 10:48:19;;;;;;;8.40;6.75;;;15.00;75.70;;;;;;5071849;28;20025;-76
2023/04/08 10:50:53;;;;;;;8.20;6.22;;;14.90;74.50;;;;;;5073168;28;20534;-76
2023/04/08 10:53:38;;;;;;;10.25;6.85;;;14.80;74.70;;;;;;5073170;28;20070;-79
2023/04/08 10:56:05;;;;;;;8.95;6.60;;;14.50;76.50;;;;;;5073193;28;20452;-77
2023/04/08 10:58:31;;;;;;;9.27;6.47;;;14.30;78.70;;;;;;5073107;28;20021;-77
2023/04/08 11:01:02;;;;;;;9.18;6.50;;;14.20;80.00;;;;;;5054739;28;20115;-78
2023/04/08 11:03:32;;;;;;;9.63;6.32;;;14.20;81.30;;;;;;5055956;28;20037;-77
2023/04/08 11:05:59;;;;;;;9.90;7.00;;;14.40;82.40;;;;;;5071960;28;20032;-76
2023/04/08 11:08:31;;;;;;;8.00;5.95;;;14.50;79.80;;;;;;5071586;28;20070;-76
2023/04/08 11:11:00;;;;;;;7.93;6.45;;;14.40;80.40;;;;;;5072881;28;20086;-77
2023/04/08 11:13:27;;;;;;;8.52;6.00;;;14.50;77.90;;;;;;5072984;28;20040;-76
2023/04/08 11:15:54;;;;;;;10.68;6.07;;;14.40;77.80;;;;;;5055800;28;20166;-76
2023/04/08 11:18:21;;;;;;;9.30;5.95;;;14.50;77.60;;;;;;5072920;28;20020;-75
2023/04/08 11:20:50;;;;;;;10.98;6.63;;;14.90;79.00;;;;;;5072178;28;20032;-77
2023/04/08 11:23:16;;;;;;;6.90;4.93;;;15.10;76.80;;;;;;5071587;28;20102;-76
2023/04/08 11:25:43;;;;;;;12.75;5.68;;;15.30;75.60;;;;;;5075427;28;20029;-77
2023/04/08 11:28:11;;;;;;;6.80;5.38;;;15.40;72.90;;;;;;5075048;28;20024;-76
2023/04/08 11:30:40;;;;;;;8.35;5.38;;;15.40;74.50;;;;;;5058633;28;20496;-76
2023/04/08 11:33:06;;;;;;;8.10;5.65;;;15.40;74.70;;;;;;5075466;28;20045;-77
2023/04/08 11:35:32;;;;;;;8.73;5.88;;;15.20;73.10;;;;;;5075080;28;20056;-76
2023/04/08 11:37:58;;;;;;;9.30;5.40;;;15.10;75.30;;;;;;5074590;28;20020;-75
2023/04/08 11:40:25;;;;;;;11.27;6.38;;;15.10;73.30;;;;;;5075397;28;20074;-76
2023/04/08 11:42:51;;;;;;;11.52;5.47;;;14.90;71.20;;;;;;5076193;28;20029;-76
2023/04/08 11:45:22;;;;;;;10.65;5.43;;;14.80;71.50;;;;;;5081990;28;20056;-77
2023/04/08 11:47:48;;;;;;;8.25;5.18;;;14.70;70.70;;;;;;5096942;28;20149;-78
2023/04/08 11:50:24;;;;;;;6.22;5.28;;;14.60;70.40;;;;;;5061746;28;20498;-77
2023/04/08 11:52:52;;;;;;;9.68;6.15;;;14.40;70.60;;;;;;5078938;28;20167;-76
2023/04/08 11:55:23;;;;;;;10.98;5.32;;;14.30;71.60;;;;;;5096129;28;20369;-76
2023/04/08 11:57:50;;;;;;;7.45;4.90;;;14.40;73.60;;;;;;5096374;28;20024;-76
2023/04/08 12:00:16;;;;;;;9.63;5.05;;;14.50;71.50;;;;;;5078848;28;20349;-75
2023/04/08 12:02:42;;;;;;;9.88;5.32;;;14.40;71.10;;;;;;5061179;28;20032;-75
2023/04/08 12:05:08;;;;;;;7.78;4.57;;;14.20;71.90;;;;;;5095960;28;20035;-77
2023/04/08 12:07:33;;;;;;;7.15;5.03;;;14.20;72.70;;;;;;5061457;28;20028;-77
2023/04/08 12:10:00;;;;;;;6.90;5.25;;;14.30;72.20;;;;;;5096052;28;20115;-76
2023/04/08 12:12:25;;;;;;;7.15;4.22;;;14.40;72.10;;;;;;5078536;28;20077;-76
2023/04/08 12:14:52;;;;;;;8.52;5.13;;;14.30;69.40;;;;;;5060984;28;20470;-76
2023/04/08 12:17:18;;;;;;;6.47;4.80;;;14.40;70.00;;;;;;5078029;28;20032;-74
2023/04/08 12:19:44;;;;;;;7.18;5.28;;;14.30;69.60;;;;;;5095790;28;20522;-76
2023/04/08 12:22:09;;;;;;;9.05;4.88;;;14.20;69.30;;;;;;5044260;28;20100;-77
2023/04/08 12:24:35;;;;;;;6.00;4.88;;;14.10;71.40;;;;;;5060423;28;20081;-76
2023/04/08 12:27:02;;;;;;;8.13;5.57;;;14.10;71.60;;;;;;5060749;28;20031;-77
2023/04/08 12:29:28;;;;;;;7.03;5.53;;;14.20;73.70;;;;;;5077492;28;20028;-76
2023/04/08 12:31:53;;;;;;;7.05;5.00;;;14.40;73.90;;;;;;5077316;28;20161;-76
2023/04/08 12:34:19;;;;;;;7.40;4.90;;;14.70;75.50;;;;;;5061065;28;20127;-76
2023/04/08 12:36:45;;;;;;;12.00;5.43;;;15.20;75.10;;;;;;5094411;28;20032;-76
2023/04/08 12:39:11;;;;;;;6.30;4.30;;;15.50;73.20;;;;;;5095280;28;20032;-75
2023/04/08 12:41:36;;;;;;;6.65;4.55;;;15.70;71.80;;;;;;5077851;28;20040;-76
2023/04/08 12:44:02;;;;;;;6.68;5.25;;;15.90;71.40;;;;;;5077278;28;20059;-77
2023/04/08 12:46:28;;;;;;;8.38;4.20;;;15.70;70.70;;;;;;5060447;28;20052;-75
2023/04/08 12:48:53;;;;;;;4.70;4.00;;;15.80;69.60;;;;;;5095886;28;20329;-77
2023/04/08 12:51:19;;;;;;;4.65;3.47;;;15.70;66.00;;;;;;5077413;28;20408;-76